createdAt,value
2023-01-19T00:01:04.690Z,2.15
2023-01-19T00:03:51.283Z,2.21
2023-01-19T00:06:37.990Z,2.26
2023-01-19T00:09:24.250Z,2.26
2023-01-19T00:12:10.513Z,2.28
2023-01-19T00:14:57.183Z,2.23
2023-01-19T00:17:43.641Z,2.17
2023-01-19T00:20:32.091Z,2.10
2023-01-19T00:23:18.666Z,2.03
2023-01-19T00:26:05.204Z,1.97
2023-01-19T00:28:51.437Z,1.93
2023-01-19T00:31:38.207Z,1.89
2023-01-19T00:34:24.380Z,1.83
2023-01-19T00:37:10.710Z,1.81
2023-01-19T00:39:57.287Z,1.84
2023-01-19T00:42:48.397Z,1.89
2023-01-19T00:45:35.298Z,1.96
2023-01-19T00:48:22.088Z,1.98
2023-01-19T00:51:08.264Z,1.97
2023-01-19T00:53:54.655Z,1.96
2023-01-19T00:56:40.992Z,1.98
2023-01-19T00:59:27.477Z,1.98
2023-01-19T01:02:13.928Z,1.97
2023-01-19T01:05:02.769Z,1.96
2023-01-19T01:07:49.874Z,1.98
2023-01-19T01:10:36.483Z,1.95
2023-01-19T01:13:26.234Z,1.91
2023-01-19T01:16:16.890Z,1.89
2023-01-19T01:19:03.492Z,1.87
2023-01-19T01:21:51.228Z,1.90
2023-01-19T01:24:38.273Z,1.90
2023-01-19T01:27:24.814Z,1.87
2023-01-19T01:30:13.158Z,1.84
2023-01-19T01:32:59.754Z,1.82
2023-01-19T01:35:46.252Z,1.76
2023-01-19T01:38:32.898Z,1.71
2023-01-19T01:41:20.590Z,1.71
2023-01-19T01:44:49.507Z,1.67
2023-01-19T01:47:45.694Z,1.60
2023-01-19T01:50:34.282Z,1.62
2023-01-19T01:53:20.804Z,1.66
2023-01-19T01:56:11.349Z,1.65
2023-01-19T01:58:58.602Z,1.64
2023-01-19T02:02:03.557Z,1.64
2023-01-19T02:04:53.543Z,1.61
2023-01-19T02:08:05.338Z,1.57
2023-01-19T02:11:10.747Z,1.52
2023-01-19T02:13:57.414Z,1.50
2023-01-19T02:16:43.777Z,1.44
2023-01-19T02:19:41.291Z,1.42
2023-01-19T02:22:42.072Z,1.38
2023-01-19T02:25:28.318Z,1.40
2023-01-19T02:28:15.234Z,1.41
2023-01-19T02:31:01.346Z,1.42
2023-01-19T02:33:47.511Z,1.46
2023-01-19T02:36:46.773Z,1.46
2023-01-19T02:39:37.124Z,1.45
2023-01-19T02:42:32.616Z,1.43
2023-01-19T02:45:22.967Z,1.39
2023-01-19T02:48:09.360Z,1.40
2023-01-19T02:51:04.279Z,1.41
2023-01-19T02:54:20.170Z,1.42
2023-01-19T02:57:21.389Z,1.41
2023-01-19T03:00:20.350Z,1.43
2023-01-19T03:03:25.646Z,1.42
2023-01-19T03:06:30.612Z,1.42
2023-01-19T03:09:28.513Z,1.41
2023-01-19T03:12:40.220Z,1.41
2023-01-19T03:15:40.960Z,1.39
2023-01-19T03:18:29.073Z,1.43
2023-01-19T03:21:16.410Z,1.42
2023-01-19T03:24:04.921Z,1.41
2023-01-19T03:26:58.859Z,1.43
2023-01-19T03:29:48.732Z,1.41
2023-01-19T03:32:39.476Z,1.38
2023-01-19T03:35:29.733Z,1.43
2023-01-19T03:38:18.973Z,1.44
2023-01-19T03:41:09.637Z,1.45
2023-01-19T03:43:56.754Z,1.45
2023-01-19T03:46:44.644Z,1.44
2023-01-19T03:49:31.695Z,1.38
2023-01-19T03:52:18.373Z,1.36
2023-01-19T03:55:06.120Z,1.38
2023-01-19T03:57:52.573Z,1.39
2023-01-19T04:00:39.672Z,1.41
2023-01-19T04:03:26.281Z,1.40
2023-01-19T04:06:12.938Z,1.42
2023-01-19T04:08:59.469Z,1.44
2023-01-19T04:11:46.167Z,1.45
2023-01-19T04:14:32.576Z,1.43
2023-01-19T04:17:19.153Z,1.42
2023-01-19T04:20:06.150Z,1.43
2023-01-19T04:22:52.542Z,1.42
2023-01-19T04:25:39.038Z,1.42
2023-01-19T04:28:26.389Z,1.48
2023-01-19T04:31:12.877Z,1.53
2023-01-19T04:33:59.273Z,1.58
2023-01-19T04:36:46.699Z,1.59
2023-01-19T04:39:33.085Z,1.59
2023-01-19T04:42:19.735Z,1.57
2023-01-19T04:45:06.718Z,1.58
2023-01-19T04:47:53.202Z,1.55
2023-01-19T04:50:39.956Z,1.55
2023-01-19T04:53:26.252Z,1.53
2023-01-19T04:56:12.944Z,1.51
2023-01-19T04:58:59.504Z,1.48
2023-01-19T05:01:45.824Z,1.49
2023-01-19T05:04:32.024Z,1.51
2023-01-19T05:07:18.482Z,1.53
2023-01-19T05:10:06.462Z,1.48
2023-01-19T05:12:52.836Z,1.52
2023-01-19T05:15:39.138Z,1.58
2023-01-19T05:18:25.731Z,1.64
2023-01-19T05:21:12.086Z,1.66
2023-01-19T05:23:58.108Z,1.64
2023-01-19T05:26:44.635Z,1.61
2023-01-19T05:29:30.837Z,1.63
2023-01-19T05:32:17.431Z,1.63
2023-01-19T05:35:04.390Z,1.60
2023-01-19T05:37:51.164Z,1.58
2023-01-19T05:40:37.646Z,1.58
2023-01-19T05:43:25.337Z,1.58
2023-01-19T05:46:12.066Z,1.58
2023-01-19T05:49:01.690Z,1.59
2023-01-19T05:51:48.156Z,1.62
2023-01-19T05:54:34.635Z,1.62
2023-01-19T05:57:21.975Z,1.62
2023-01-19T06:00:09.006Z,1.62
2023-01-19T06:02:55.753Z,1.63
2023-01-19T06:05:42.311Z,1.63
2023-01-19T06:08:29.614Z,1.63
2023-01-19T06:11:15.909Z,1.61
2023-01-19T06:14:02.684Z,1.56
2023-01-19T06:16:48.830Z,1.54
2023-01-19T06:19:35.269Z,1.52
2023-01-19T06:22:21.633Z,1.51
2023-01-19T06:25:08.763Z,1.52
2023-01-19T06:27:55.253Z,1.56
2023-01-19T06:30:41.710Z,1.54
2023-01-19T06:33:28.654Z,1.48
2023-01-19T06:36:15.557Z,1.48
2023-01-19T06:39:06.014Z,1.46
2023-01-19T06:41:52.640Z,1.41
2023-01-19T06:44:39.143Z,1.40
2023-01-19T06:47:25.670Z,1.38
2023-01-19T06:50:11.713Z,1.35
2023-01-19T06:52:58.781Z,1.34
2023-01-19T06:55:45.447Z,1.35
2023-01-19T06:58:31.999Z,1.32
2023-01-19T07:01:18.187Z,1.35
2023-01-19T07:04:04.547Z,1.37
2023-01-19T07:06:51.111Z,1.39
2023-01-19T07:09:37.315Z,1.40
2023-01-19T07:12:23.892Z,1.39
2023-01-19T07:15:11.730Z,1.37
2023-01-19T07:17:58.959Z,1.35
2023-01-19T07:20:46.876Z,1.33
2023-01-19T07:23:34.157Z,1.35
2023-01-19T07:26:21.748Z,1.36
2023-01-19T07:29:08.146Z,1.32
2023-01-19T07:31:54.813Z,1.33
2023-01-19T07:34:41.135Z,1.36
2023-01-19T07:37:27.546Z,1.35
2023-01-19T07:40:14.722Z,1.35
2023-01-19T07:43:01.157Z,1.33
2023-01-19T07:45:47.747Z,1.28
2023-01-19T07:48:34.440Z,1.29
2023-01-19T07:51:20.741Z,1.28
2023-01-19T07:54:08.552Z,1.28
2023-01-19T07:56:55.165Z,1.24
2023-01-19T07:59:41.583Z,1.23
2023-01-19T08:02:27.943Z,1.22
2023-01-19T08:05:15.414Z,1.16
2023-01-19T08:08:02.234Z,1.14
2023-01-19T08:10:52.146Z,1.10
2023-01-19T08:13:38.810Z,1.03
2023-01-19T08:16:25.399Z,1.01
2023-01-19T08:19:12.105Z,1.00
2023-01-19T08:21:59.187Z,0.97
2023-01-19T08:24:45.511Z,0.98
2023-01-19T08:27:31.777Z,1.07
2023-01-19T08:30:18.291Z,1.13
2023-01-19T08:33:05.015Z,1.19
2023-01-19T08:35:53.345Z,1.25
2023-01-19T08:38:43.553Z,1.28
2023-01-19T08:41:30.219Z,1.52
2023-01-19T08:44:16.969Z,1.97
2023-01-19T08:47:03.584Z,2.27
2023-01-19T08:49:50.267Z,2.42
2023-01-19T08:52:36.452Z,2.57
2023-01-19T08:55:23.416Z,2.76
2023-01-19T08:58:10.274Z,2.96
2023-01-19T09:00:56.918Z,3.15
2023-01-19T09:03:43.967Z,3.28
2023-01-19T09:06:30.763Z,3.30
2023-01-19T09:09:16.962Z,3.39
2023-01-19T09:12:03.842Z,3.44
2023-01-19T09:14:50.292Z,3.49
2023-01-19T09:17:36.666Z,3.52
2023-01-19T09:20:23.538Z,3.53
2023-01-19T09:23:11.113Z,3.57
2023-01-19T09:25:59.596Z,3.64
2023-01-19T09:28:45.931Z,3.65
2023-01-19T09:31:32.239Z,3.58
2023-01-19T09:34:18.946Z,3.59
2023-01-19T09:37:05.174Z,3.60
2023-01-19T09:39:51.669Z,3.73
2023-01-19T09:43:06.365Z,3.75
2023-01-19T09:46:00.905Z,3.96
2023-01-19T09:48:48.199Z,4.05
2023-01-19T09:51:38.394Z,4.05
2023-01-19T09:54:41.057Z,4.06
2023-01-19T09:57:27.841Z,4.17
2023-01-19T10:00:17.100Z,4.45
2023-01-19T10:03:22.752Z,4.69
2023-01-19T10:06:12.017Z,4.84
2023-01-19T10:09:32.004Z,4.84
2023-01-19T10:12:31.722Z,4.93
2023-01-19T10:15:42.921Z,5.26
2023-01-19T10:18:43.233Z,5.52
2023-01-19T10:21:40.164Z,5.76
2023-01-19T10:24:43.130Z,5.85
2023-01-19T10:27:31.509Z,5.87
2023-01-19T10:30:25.857Z,5.98
2023-01-19T10:33:13.787Z,6.05
2023-01-19T10:36:04.134Z,6.07
2023-01-19T10:38:51.029Z,6.16
2023-01-19T10:41:42.047Z,6.16
2023-01-19T10:44:34.160Z,5.99
2023-01-19T10:47:21.705Z,5.89
2023-01-19T10:50:30.742Z,5.70
2023-01-19T10:53:22.343Z,5.49
2023-01-19T10:56:16.175Z,5.50
2023-01-19T10:59:04.922Z,5.55
2023-01-19T11:02:17.399Z,5.73
2023-01-19T11:05:30.085Z,5.90
2023-01-19T11:08:30.628Z,6.06
2023-01-19T11:11:18.751Z,6.30
2023-01-19T11:14:11.075Z,6.52
2023-01-19T11:16:58.317Z,6.66
2023-01-19T11:19:53.506Z,6.90
2023-01-19T11:22:40.084Z,7.19
2023-01-19T11:25:31.054Z,7.36
2023-01-19T11:28:37.109Z,7.40
2023-01-19T11:31:29.705Z,7.34
2023-01-19T11:34:24.405Z,7.46
2023-01-19T11:37:31.566Z,7.61
2023-01-19T11:40:18.017Z,7.58
2023-01-19T11:43:04.669Z,7.56
2023-01-19T11:45:51.604Z,7.56
2023-01-19T11:49:02.173Z,7.53
2023-01-19T11:52:16.163Z,7.65
2023-01-19T11:55:18.968Z,7.78
2023-01-19T11:58:05.696Z,7.80
2023-01-19T12:00:53.452Z,7.73
2023-01-19T12:03:46.863Z,7.37
2023-01-19T12:06:36.796Z,7.24
2023-01-19T12:09:36.167Z,7.34
2023-01-19T12:12:35.321Z,7.33
2023-01-19T12:15:32.093Z,7.41
2023-01-19T12:18:22.614Z,7.53
2023-01-19T12:21:08.974Z,7.57
2023-01-19T12:24:04.887Z,7.76
2023-01-19T12:26:55.823Z,7.92
2023-01-19T12:29:42.490Z,7.93
2023-01-19T12:32:34.931Z,7.96
2023-01-19T12:35:59.725Z,7.97
2023-01-19T12:47:24.595Z,7.93
2023-01-19T12:50:17.383Z,7.83
2023-01-19T12:53:04.708Z,7.86
2023-01-19T12:56:01.412Z,7.80
2023-01-19T12:58:49.298Z,7.72
2023-01-19T13:01:35.639Z,7.76
2023-01-19T13:04:33.171Z,7.71
2023-01-19T13:07:20.344Z,7.68
2023-01-19T13:10:44.106Z,7.48
2023-01-19T13:13:31.542Z,7.38
2023-01-19T13:16:27.657Z,7.40
2023-01-19T13:19:18.543Z,7.44
2023-01-19T13:22:46.598Z,7.63
2023-01-19T13:25:35.561Z,7.73
2023-01-19T13:28:29.112Z,7.72
2023-01-19T13:31:16.117Z,7.80
2023-01-19T13:34:03.019Z,7.80
2023-01-19T13:36:54.738Z,7.80
2023-01-19T13:39:44.201Z,7.86
2023-01-19T13:42:34.042Z,7.89
2023-01-19T13:45:34.514Z,7.82
2023-01-19T13:48:25.472Z,7.77
2023-01-19T13:51:18.133Z,7.66
2023-01-19T13:54:05.692Z,7.47
2023-01-19T13:56:51.954Z,7.43
2023-01-19T13:59:38.530Z,7.55
2023-01-19T14:02:25.000Z,7.86
2023-01-19T14:05:36.249Z,7.84
2023-01-19T14:08:23.228Z,7.68
2023-01-19T14:11:13.742Z,7.36
2023-01-19T14:14:00.165Z,7.19
2023-01-19T14:16:46.322Z,6.97
2023-01-19T14:19:48.357Z,6.72
2023-01-19T14:22:43.104Z,6.34
2023-01-19T14:25:31.703Z,6.18
2023-01-19T14:28:36.075Z,5.99
2023-01-19T14:31:24.982Z,5.82
2023-01-19T14:34:34.922Z,5.65
2023-01-19T14:37:27.370Z,5.38
2023-01-19T14:40:20.970Z,5.07
2023-01-19T14:43:11.703Z,4.86
2023-01-19T14:45:58.310Z,4.66
2023-01-19T14:48:48.774Z,4.47
2023-01-19T14:51:35.071Z,4.29
2023-01-19T14:54:28.882Z,4.13
2023-01-19T14:57:15.594Z,3.99
2023-01-19T15:00:06.898Z,3.87
2023-01-19T15:02:53.424Z,3.71
2023-01-19T15:05:47.813Z,3.51
2023-01-19T15:08:34.529Z,3.31
2023-01-19T15:11:41.867Z,3.14
2023-01-19T15:14:28.265Z,2.94
2023-01-19T15:17:25.740Z,2.84
2023-01-19T15:20:15.900Z,2.72
2023-01-19T15:23:02.327Z,2.62
2023-01-19T15:25:49.703Z,2.49
2023-01-19T15:28:35.994Z,2.29
2023-01-19T15:31:24.218Z,2.14
2023-01-19T15:34:12.602Z,1.99
2023-01-19T15:36:59.942Z,1.88
2023-01-19T15:39:46.301Z,1.78
2023-01-19T15:42:33.368Z,1.67
2023-01-19T15:45:38.854Z,1.55
2023-01-19T15:48:25.746Z,1.43
2023-01-19T15:51:19.851Z,1.35
2023-01-19T15:54:05.856Z,1.24
2023-01-19T15:56:52.914Z,1.06
2023-01-19T15:59:39.224Z,0.79
2023-01-19T16:02:25.660Z,0.64
2023-01-19T16:05:12.486Z,0.59
2023-01-19T16:08:01.120Z,0.56
2023-01-19T16:10:50.333Z,0.52
2023-01-19T16:13:36.601Z,0.41
2023-01-19T16:16:24.602Z,0.31
2023-01-19T16:19:14.248Z,0.20
2023-01-19T16:22:00.394Z,0.07
2023-01-19T16:24:46.769Z,0.01
2023-01-19T16:27:33.405Z,-0.04
2023-01-19T16:30:19.797Z,-0.09
2023-01-19T16:33:06.400Z,-0.16
2023-01-19T16:35:53.148Z,-0.22
2023-01-19T16:38:39.445Z,-0.27
2023-01-19T16:41:25.885Z,-0.33
2023-01-19T16:44:13.897Z,-0.41
2023-01-19T16:47:00.589Z,-0.53
2023-01-19T16:49:46.740Z,-0.63
2023-01-19T16:52:33.593Z,-0.66
2023-01-19T16:55:19.597Z,-0.64
2023-01-19T16:58:06.198Z,-0.59
2023-01-19T17:00:52.691Z,-0.54
2023-01-19T17:03:39.648Z,-0.49
2023-01-19T17:06:26.370Z,-0.49
2023-01-19T17:09:13.537Z,-0.53
2023-01-19T17:12:00.167Z,-0.57
2023-01-19T17:14:49.451Z,-0.60
2023-01-19T17:17:36.812Z,-0.54
2023-01-19T17:20:23.118Z,-0.55
2023-01-19T17:23:09.683Z,-0.60
2023-01-19T17:25:57.341Z,-0.66
2023-01-19T17:28:44.327Z,-0.75
2023-01-19T17:31:32.134Z,-0.84
2023-01-19T17:34:18.730Z,-0.91
2023-01-19T17:37:05.068Z,-1.00
2023-01-19T17:39:51.565Z,-1.16
2023-01-19T17:42:41.948Z,-1.23
2023-01-19T17:45:28.671Z,-1.33
2023-01-19T17:48:17.474Z,-1.37
2023-01-19T17:51:09.608Z,-1.45
2023-01-19T17:53:56.449Z,-1.52
2023-01-19T17:56:43.071Z,-1.53
2023-01-19T17:59:29.724Z,-1.57
2023-01-19T18:02:17.415Z,-1.61
2023-01-19T18:05:04.020Z,-1.65
2023-01-19T18:07:50.608Z,-1.67
2023-01-19T18:10:38.141Z,-1.70
2023-01-19T18:13:24.327Z,-1.72
2023-01-19T18:16:13.870Z,-1.73
2023-01-19T18:19:00.726Z,-1.74
2023-01-19T18:21:48.414Z,-1.74
2023-01-19T18:24:35.219Z,-1.73
2023-01-19T18:27:22.915Z,-1.70
2023-01-19T18:30:09.727Z,-1.68
2023-01-19T18:32:55.963Z,-1.74
2023-01-19T18:35:42.338Z,-1.84
2023-01-19T18:38:28.935Z,-1.93
2023-01-19T18:41:16.705Z,-2.05
2023-01-19T18:44:03.397Z,-2.16
2023-01-19T18:46:49.536Z,-2.25
2023-01-19T18:49:36.235Z,-2.34
2023-01-19T18:52:22.712Z,-2.42
2023-01-19T18:55:09.249Z,-2.46
2023-01-19T18:57:55.732Z,-2.45
2023-01-19T19:00:42.237Z,-2.46
2023-01-19T19:03:28.731Z,-2.57
2023-01-19T19:06:16.841Z,-2.66
2023-01-19T19:09:03.676Z,-2.77
2023-01-19T19:11:50.011Z,-2.78
2023-01-19T19:14:36.415Z,-2.76
2023-01-19T19:17:22.699Z,-2.75
2023-01-19T19:20:10.051Z,-2.71
2023-01-19T19:22:56.979Z,-2.66
2023-01-19T19:25:43.289Z,-2.62
2023-01-19T19:28:29.708Z,-2.60
2023-01-19T19:31:20.506Z,-2.58
2023-01-19T19:34:08.321Z,-2.57
2023-01-19T19:36:54.816Z,-2.54
2023-01-19T19:39:41.051Z,-2.51
2023-01-19T19:42:30.087Z,-2.49
2023-01-19T19:45:16.946Z,-2.49
2023-01-19T19:48:03.699Z,-2.49
2023-01-19T19:50:50.028Z,-2.45
2023-01-19T19:53:39.979Z,-2.47
2023-01-19T19:56:28.950Z,-2.52
2023-01-19T19:59:15.587Z,-2.55
2023-01-19T20:02:01.792Z,-2.59
2023-01-19T20:04:48.539Z,-2.63
2023-01-19T20:07:35.104Z,-2.67
2023-01-19T20:10:21.661Z,-2.70
2023-01-19T20:13:09.133Z,-2.72
2023-01-19T20:15:55.940Z,-2.71
2023-01-19T20:18:44.011Z,-2.73
2023-01-19T20:21:32.309Z,-2.78
2023-01-19T20:24:19.880Z,-2.76
2023-01-19T20:27:06.857Z,-2.73
2023-01-19T20:29:58.081Z,-2.74
2023-01-19T20:32:44.745Z,-2.69
2023-01-19T20:35:31.378Z,-2.58
2023-01-19T20:38:17.933Z,-2.54
2023-01-19T20:41:05.899Z,-2.55
2023-01-19T20:43:52.384Z,-2.53
2023-01-19T20:46:39.132Z,-2.43
2023-01-19T20:49:25.797Z,-2.33
2023-01-19T20:52:12.293Z,-2.40
2023-01-19T20:54:58.949Z,-2.46
2023-01-19T20:57:45.120Z,-2.52
2023-01-19T21:00:31.790Z,-2.62
2023-01-19T21:03:18.135Z,-2.66
2023-01-19T21:06:05.108Z,-2.66
2023-01-19T21:08:51.610Z,-2.69
2023-01-19T21:11:38.852Z,-2.72
2023-01-19T21:14:25.198Z,-2.72
2023-01-19T21:17:11.604Z,-2.73
2023-01-19T21:19:57.895Z,-2.77
2023-01-19T21:22:44.079Z,-2.80
2023-01-19T21:25:30.636Z,-2.80
2023-01-19T21:28:20.787Z,-2.84
2023-01-19T21:31:09.471Z,-2.90
2023-01-19T21:33:57.306Z,-2.91
2023-01-19T21:36:44.743Z,-2.92
2023-01-19T21:39:31.296Z,-2.92
2023-01-19T21:42:17.732Z,-2.93
2023-01-19T21:45:04.455Z,-2.94
2023-01-19T21:47:51.120Z,-2.94
2023-01-19T21:50:38.285Z,-2.91
2023-01-19T21:53:24.628Z,-2.85
2023-01-19T21:56:11.526Z,-2.82
2023-01-19T21:58:59.420Z,-2.76
2023-01-19T22:01:46.252Z,-2.68
2023-01-19T22:04:32.470Z,-2.60
2023-01-19T22:07:18.654Z,-2.48
2023-01-19T22:10:05.831Z,-2.45
2023-01-19T22:12:52.278Z,-2.39
2023-01-19T22:15:38.772Z,-2.39
2023-01-19T22:18:25.393Z,-2.45
2023-01-19T22:21:15.128Z,-2.47
2023-01-19T22:24:02.940Z,-2.50
2023-01-19T22:26:49.691Z,-2.51
2023-01-19T22:29:36.013Z,-2.48
2023-01-19T22:32:22.450Z,-2.46
2023-01-19T22:35:08.570Z,-2.48
2023-01-19T22:37:55.280Z,-2.51
2023-01-19T22:40:41.826Z,-2.54
2023-01-19T22:43:28.076Z,-2.55
2023-01-19T22:46:19.137Z,-2.57
2023-01-19T22:49:07.558Z,-2.64
2023-01-19T22:51:54.905Z,-2.65
2023-01-19T22:54:41.139Z,-2.63
2023-01-19T22:57:27.460Z,-2.59
2023-01-19T23:00:14.592Z,-2.53
2023-01-19T23:03:00.654Z,-2.50
2023-01-19T23:05:47.334Z,-2.47
2023-01-19T23:08:34.524Z,-2.46
2023-01-19T23:11:23.646Z,-2.43
2023-01-19T23:14:15.368Z,-2.37
2023-01-19T23:17:01.748Z,-2.31
2023-01-19T23:19:48.062Z,-2.32
2023-01-19T23:22:34.046Z,-2.33
2023-01-19T23:25:20.400Z,-2.35
2023-01-19T23:28:07.092Z,-2.35
2023-01-19T23:30:53.249Z,-2.32
2023-01-19T23:33:41.548Z,-2.36
2023-01-19T23:36:29.899Z,-2.36
2023-01-19T23:39:19.561Z,-2.37
2023-01-19T23:42:08.188Z,-2.40
2023-01-19T23:44:55.368Z,-2.43
2023-01-19T23:47:43.333Z,-2.47
2023-01-19T23:50:30.095Z,-2.49
2023-01-19T23:53:16.684Z,-2.52
2023-01-19T23:56:17.987Z,-2.53
2023-01-19T23:59:09.738Z,-2.55
